Decoded Metar for LEST (SANTIAGO in SPAIN) (IATA:SCQ) | Meteo·Mobile Aviation Weather
aviador You're here:

LEST Decoded Metar

SANTIAGO in SPAIN
Report Time2018-10-20 09:00:00
UTC Time2018-10-20 09:11:19
Flight Rules vfr VFR
Wind080° at 05 kt
W.Decomp.*RWY 17: 0.3 kt HW 5 kt LCW
W.Rank080° ranks 28
Current wind is above 080° avg. (4.9)
Visibility9999 m
Phenomena:N/A
Clouds:N/A
Expected CloudBase > 2,000 ft AGL from Temp-Dew spread
CeilingNone
Temp16°C (ISA +3)
Dew Point11°C (72% RH)
AAT14.5°C
QNH1022 hPa
Density Alt1,480 ft
Elevation1,204 ft
Report Wrong Elevation
Raw Report
METAR LEST 200900Z 08005KT 010V150 CAVOK 16/11 Q1022 NOSIG=

Extra information for LEST:More info

Metar Taf Metar & Taf Last 4 Metars F.Rules Stats Wind Profile Meteogram Temp Stats Airport Information Weather charts Add Link Nearby VenuesMetar ALERT Operation Metar Decoded Social comments